首页
METAR-TAF:

METAR-TAF

机场 :

新加坡樟宜机场

新加坡, 新加坡

纬度: 01-22N, 经度: 103-59E, 海拔: 5米

当前天气观测

该预报发布于38分钟前的11:00 UTC
风速8节,风向北转东北,在之间变化
温度 28°C
湿度 70%
气压 1011 hPa
能见度10公里或以上
少量云层高于2200英尺
散云层高于14000英尺
多云层高于28000英尺

METAR: WSSS 241100Z 03008KT 010V090 9999 FEW022 SCT140 BKN280 28/22 Q1011 NOSIG

时间: 19:38 (11:38 UTC)

预报

该预报发布于3小时和38分钟前的08:00 UTC
预报有效从24日的 08点(UTC)到 25日的 12点(UTC)
风速10节,风向北转东北
能见度10公里或以上
散云层高于2000英尺

TAF: WSSS 240800Z 2408/2512 03010KT 9999 SCT020

超过4000个机场的气象观测和天气预报(METAR&TAF报告)。

可查询的气象台以黄色和红色小点在地图上表示。

将鼠标移到小点上方,可查看气象台名称。

然后点击查看天气观测和预报。

如需切换地图:点击带黑十字的绿色按钮放大地图;点击带横线的绿色按钮缩小地图;或者点击绿色箭头查看邻近地区的地图。


METAR-TAF: